• Join FlightAware (Why Join?)
  • Login
  • US Flag 
11:53PM EDT


 

Airport Tracker/Info


-or-


 

Live Flight TrackerFlight Track Log ✈ FLG3785 ✈ 16-May-2013 ✈ KCLE - KMSP

Flight Track Log - Related Links

Times and Time Zones

All times are in EDT time to prevent confusion due to time zone crossing. See the FLG3785 flight status page for this flight to view local times or setup timezone preferences in your user account.

Time Position Orientation Groundspeed Altitude Reporting Facility
EDT Latitude Longitude Course Direction KTS MPH feet Rate Location/Type
11:25AM 41.4278 -81.8347 252° West 168 193 1,900  Level Cleveland Center
11:26AM 41.4694 -81.8411 353° North 210 242 3,200 1,680 Climbing Cleveland Center
11:27AM 41.5169 -81.8864 324° Northwest 265 305 5,000 2,220 Climbing Cleveland Center
11:28AM 41.4803 -81.9772 242° Southwest 249 287 7,700 2,820 Climbing Cleveland Center
11:29AM 41.3358 -82.3480 260° West  Level FlightAware Approximate
11:29AM 41.4500 -82.0708 247° West 270 311 10,700  Level Cleveland Center
11:30AM 41.3075 -82.4700 252° West  Level FlightAware Approximate
11:30AM 41.4172 -82.1725 247° West 287 330 11,900  Level Cleveland Center
11:31AM 41.2969 -82.5956 252° West  Level FlightAware Approximate
11:31AM 41.3844 -82.2769 247° West 309 356 14,200  Level Cleveland Center
11:32AM 41.3517 -82.3839 248° West 316 364 15,700 1,380 Climbing Cleveland Center
11:33AM 41.3167 -82.4908 246° West 316 364 17,000 1,140 Climbing Cleveland Center
11:34AM 41.2981 -82.5953 257° West 316 364 18,000 1,020 Climbing Cleveland Center
11:35AM 41.2814 -82.7192 260° West 331 381 19,100 1,140 Climbing Cleveland Center
11:36AM 41.2644 -82.8400 259° West 344 396 20,300 1,080 Climbing Cleveland Center
11:37AM 41.2556 -82.9697 265° West 350 403 21,300 900 Climbing Cleveland Center
11:38AM 41.2694 -83.0972 278° West 350 403 22,200 840 Climbing Cleveland Center
11:39AM 41.2808 -83.2386 276° West 355 409 23,000 780 Climbing Cleveland Center
11:40AM 41.2964 -83.3692 279° West 355 409 23,800 780 Climbing Cleveland Center
11:41AM 41.3056 -83.5050 275° West 360 414 24,600 720 Climbing Cleveland Center
11:42AM 41.3000 -83.6403 267° West 365 420 25,300 600 Climbing Cleveland Center
11:43AM 41.2922 -83.7725 266° West 365 420 25,900 540 Climbing Cleveland Center
11:44AM 41.2883 -83.9106 268° West 365 420 26,400 480 Climbing Cleveland Center
11:45AM 41.2819 -84.0483 267° West 365 420 26,900 420 Climbing Cleveland Center
11:46AM 41.2803 -84.1258 268° West 378 435 27,200 420 Climbing Chicago Center
11:47AM 41.2975 -84.2622 280° West 374 430 27,700 480 Climbing Chicago Center
11:48AM 41.3164 -84.4297 279° West 381 438 28,300 480 Climbing Chicago Center
11:49AM 41.3331 -84.5667 279° West 377 434 28,800 480 Climbing Chicago Center
11:50AM 41.3489 -84.7044 279° West 376 433 29,300 480 Climbing Chicago Center
11:51AM 41.3628 -84.8433 278° West 379 436 29,800 480 Climbing Chicago Center
11:52AM 41.3778 -84.9803 278° West 375 432 30,300 480 Climbing Chicago Center
11:53AM 41.3908 -85.1175 277° West 373 429 30,800 480 Climbing Chicago Center
11:54AM 41.4636 -85.2547 305° West 375 432 31,400 480 Climbing Chicago Center
11:55AM 41.5253 -85.3656 307° West 374 430 31,900 240 Climbing Chicago Center
11:56AM 41.5917 -85.4767 309° West 378 435 32,000  Climbing Chicago Center
11:57AM 41.6611 -85.6019 307° West 391 450 32,000  Level Chicago Center
11:58AM 41.7275 -85.7192 307° West 397 457 32,000  Level Chicago Center
11:59AM 41.7947 -85.8367 308° West 399 459 32,000  Level Chicago Center
12:00PM 41.8614 -85.9564 307° West 400 460 32,000  Level Chicago Center
12:01PM 41.9286 -86.0750 307° West 401 461 32,000  Level Chicago Center
12:03PM 42.0106 -86.1989 312° West  Level FlightAware Approximate
12:03PM 42.0728 -86.3381 312° West 397 457 32,000  Level Chicago Center
12:04PM 42.1397 -86.4572 307° West 398 458 32,000  Level Chicago Center
12:05PM 42.2058 -86.5772 307° West 400 460 32,000  Level Chicago Center
12:06PM 42.2717 -86.6967 307° West 398 458 32,000  Level Chicago Center
12:07PM 42.3369 -86.8167 306° West 399 459 32,000  Level Chicago Center
12:08PM 42.4164 -86.9608 307° West 401 461 32,000  Level Chicago Center
12:10PM 42.4794 -87.0772 306° West 391 450 32,000  Level Chicago Center
12:11PM 42.5442 -87.1972 306° West 394 453 32,000  Level Chicago Center
12:12PM 42.6078 -87.3189 305° West 397 457 32,000  Level Chicago Center
12:13PM 42.6833 -87.4597 306° West 396 456 32,000  Level Chicago Center
12:14PM 42.7489 -87.5825 306° West 398 458 32,000  Level Chicago Center
12:15PM 42.8136 -87.7033 306° West 396 456 32,000  Level Chicago Center
12:16PM 42.8783 -87.8253 306° West 394 453 32,000  Level Chicago Center
12:17PM 42.9431 -87.9489 306° West 398 458 32,000  Level Chicago Center
12:18PM 43.0181 -88.0950 305° West 401 461 32,000  Level Chicago Center
12:19PM 43.0836 -88.2194 306° West 400 460 32,000  Level Chicago Center
12:20PM 43.1517 -88.3436 307° West 403 464 32,000  Level Chicago Center
12:21PM 43.2225 -88.4631 309° West 401 461 32,000  Level Chicago Center
12:22PM 43.2936 -88.5867 308° West 405 466 32,000  Level Chicago Center
12:23PM 43.3661 -88.7106 309° West 408 470 32,000  Level Chicago Center
12:24PM 43.4375 -88.8328 309° West 407 468 32,000  Level Chicago Center
12:25PM 43.5081 -88.9544 309° West 404 465 32,000  Level Chicago Center
12:26PM 43.5892 -89.0947 309° West 401 461 32,000  Level Chicago Center
12:27PM 43.6575 -89.2158 308° West 399 459 32,000  Level Chicago Center
12:28PM 43.6808 -89.2556 309° West 399 459 32,000  Level Minneapolis Center
12:29PM 43.7494 -89.3750 309° West 397 457 32,000  Level Minneapolis Center
12:30PM 43.8397 -89.5350 308° West 393 452 32,000  Level Minneapolis Center
12:31PM 43.9069 -89.6539 308° West 391 450 32,000  Level Minneapolis Center
12:32PM 43.9736 -89.7719 308° West 387 445 32,000  Level Minneapolis Center
12:33PM 44.0403 -89.8928 308° West 392 451 32,000  Level Minneapolis Center
12:34PM 44.1083 -90.0392 303° West 387 445 32,000  Level Minneapolis Center
12:35PM 44.1639 -90.1681 301° West 387 445 32,000  Level Minneapolis Center
12:36PM 44.2197 -90.2969 301° West 389 448 32,000 -60 Level Minneapolis Center
12:37PM 44.2764 -90.4272 301° West 392 451 31,900 -900 Descending Minneapolis Center
12:38PM 44.3311 -90.5572 301° West 390 449 30,200 -1,620 Descending Minneapolis Center
12:39PM 44.3872 -90.6808 302° West 379 436 28,600 -1,740 Descending Minneapolis Center
12:40PM 44.4489 -90.8322 300° West 383 441 26,700 -1,620 Descending Minneapolis Center
12:41PM 44.5006 -90.9539 301° West 391 450 25,300 -1,320 Descending Minneapolis Center
12:42PM 44.5569 -91.0842 301° West 393 452 24,000 -1,320 Descending Minneapolis Center
12:43PM 44.6200 -91.2369 300° West 383 441 22,600 -1,500 Descending Minneapolis Center
12:44PM 44.6747 -91.3647 301° West 382 440 21,000 -1,500 Descending Minneapolis Center
12:45PM 44.7250 -91.4894 300° West 374 430 19,600 -1,500 Descending Minneapolis Center
12:46PM 44.7772 -91.6164 300° West 363 418 18,000 -1,440 Descending Minneapolis Center
12:47PM 44.8231 -91.7264 300° West 348 400 16,700 -1,320 Descending Minneapolis Center
12:48PM 44.8711 -91.8436 300° West 346 398 15,300 -1,440 Descending Minneapolis Center
12:49PM 44.9267 -91.9839 299° West 344 396 13,700 -1,380 Descending Minneapolis Center
12:50PM 44.9753 -92.1011 300° West 346 398 12,500 -1,200 Descending Minneapolis Center
12:52PM 45.0217 -92.2186 299° West 344 396 11,300 -780 Descending Minneapolis Center
12:53PM 45.0444 -92.3450 284° West 347 399 11,000 -180 Descending Minneapolis Center
12:54PM 45.0206 -92.4789 256° West 352 405 11,000  Level Minneapolis Center
12:55PM 44.9944 -92.6375 257° West 349 402 11,000  Level Minneapolis Center
12:56PM 44.9731 -92.7717 257° West 351 404 11,000 -300 Level Minneapolis Center
12:57PM 44.9522 -92.8997 257° West 339 390 10,400 -1,020 Descending Minneapolis Center
12:58PM 44.9350 -93.0097 258° West 293 337 9,000 -1,200 Descending Minneapolis Center
12:59PM 44.9436 -93.1111 277° West 278 320 8,000 -960 Descending Minneapolis Center
01:00PM 44.9972 -93.2158 306° West 278 320 7,100 -1,260 Descending Minneapolis Center
01:01PM 45.0478 -93.2947 312° West 274 315 5,500 -1,380 Descending Minneapolis Center
01:02PM 45.0653 -93.3819 286° West 254 292 4,300 -1,020 Descending Minneapolis Center
01:03PM 45.0097 -93.3900 186° South 228 262 3,400 -660 Descending Minneapolis Center
01:04PM 44.9544 -93.3586 158° South 215 247 3,000 -720 Descending Minneapolis Center
01:05PM 44.9214 -93.2869 123° Southeast 179 206 2,000 -900 Descending Minneapolis Center
01:06PM 44.9014 -93.2400 121° Southeast 142 163 1,200 -780 Descending Minneapolis Center